createdAt,value
2023-03-17T00:01:09.820Z,3.38
2023-03-17T00:05:24.311Z,6.15
2023-03-17T00:09:27.084Z,7.10
2023-03-17T00:13:31.175Z,6.93
2023-03-17T00:17:33.836Z,4.30
2023-03-17T00:21:36.035Z,3.85
2023-03-17T00:25:43.098Z,1.13
2023-03-17T00:29:45.357Z,3.50
2023-03-17T00:33:49.024Z,3.58
2023-03-17T00:37:54.876Z,2.23
2023-03-17T00:41:57.080Z,2.72
2023-03-17T00:45:59.165Z,2.80
2023-03-17T00:50:01.377Z,1.38
2023-03-17T00:54:03.683Z,2.63
2023-03-17T00:58:33.966Z,1.52
2023-03-17T01:02:36.285Z,1.38
2023-03-17T01:06:38.682Z,2.65
2023-03-17T01:10:41.771Z,3.05
2023-03-17T01:14:44.142Z,2.50
2023-03-17T01:18:47.374Z,3.15
2023-03-17T01:22:50.703Z,2.28
2023-03-17T01:26:52.891Z,2.75
2023-03-17T01:30:55.644Z,2.67
2023-03-17T01:34:59.258Z,3.73
2023-03-17T01:39:01.937Z,2.78
2023-03-17T01:43:19.043Z,1.77
2023-03-17T01:47:22.292Z,1.05
2023-03-17T01:51:35.985Z,2.20
2023-03-17T01:55:38.643Z,1.40
2023-03-17T01:59:50.254Z,1.60
2023-03-17T02:03:53.727Z,1.52
2023-03-17T02:07:58.779Z,0.85
2023-03-17T02:12:05.405Z,1.13
2023-03-17T02:16:08.124Z,0.55
2023-03-17T02:20:16.311Z,1.13
2023-03-17T02:24:28.040Z,2.78
2023-03-17T02:28:31.798Z,0.57
2023-03-17T02:32:38.049Z,1.30
2023-03-17T02:36:40.797Z,2.70
2023-03-17T02:40:43.617Z,0.90
2023-03-17T02:44:45.874Z,1.15
2023-03-17T02:48:49.239Z,1.70
2023-03-17T02:52:51.892Z,1.20
2023-03-17T02:56:54.032Z,2.55
2023-03-17T03:00:56.681Z,1.77
2023-03-17T03:04:59.289Z,0.68
2023-03-17T03:09:01.880Z,0.90
2023-03-17T03:13:09.027Z,0.63
2023-03-17T03:17:12.832Z,0.88
2023-03-17T03:21:15.513Z,0.85
2023-03-17T03:25:18.008Z,1.45
2023-03-17T03:29:20.437Z,0.77
2023-03-17T03:33:22.891Z,0.80
2023-03-17T03:37:26.081Z,2.40
2023-03-17T03:41:28.338Z,0.82
2023-03-17T03:45:30.997Z,6.20
2023-03-17T03:49:33.574Z,0.40
2023-03-17T03:53:35.758Z,1.25
2023-03-17T03:57:37.978Z,0.80
2023-03-17T04:01:40.247Z,2.30
2023-03-17T04:05:42.341Z,0.63
2023-03-17T04:09:44.476Z,0.68
2023-03-17T04:13:46.646Z,1.15
2023-03-17T04:17:48.819Z,0.40
2023-03-17T04:21:53.592Z,0.60
2023-03-17T04:25:56.877Z,1.95
2023-03-17T04:29:59.453Z,1.83
2023-03-17T04:34:01.787Z,0.38
2023-03-17T04:38:04.451Z,0.93
2023-03-17T04:42:06.949Z,0.80
2023-03-17T04:46:09.513Z,2.08
2023-03-17T04:50:12.330Z,2.78
2023-03-17T04:54:14.501Z,0.50
2023-03-17T04:58:29.868Z,1.92
2023-03-17T05:02:32.543Z,0.52
2023-03-17T05:06:35.969Z,2.10
2023-03-17T05:10:38.038Z,1.05
2023-03-17T05:14:40.639Z,1.40
2023-03-17T05:18:43.789Z,3.00
2023-03-17T05:22:46.622Z,2.20
2023-03-17T05:26:48.873Z,1.33
2023-03-17T05:30:52.201Z,2.88
2023-03-17T05:34:54.584Z,2.13
2023-03-17T05:38:56.765Z,3.17
2023-03-17T05:42:58.918Z,1.20
2023-03-17T05:47:01.234Z,1.23
2023-03-17T05:51:03.719Z,3.60
2023-03-17T05:55:07.910Z,2.05
2023-03-17T05:59:14.968Z,2.10
2023-03-17T06:03:17.303Z,1.67
2023-03-17T06:07:19.475Z,2.47
2023-03-17T06:11:22.180Z,3.15
2023-03-17T06:20:19.517Z,2.85
2023-03-17T06:24:21.801Z,2.23
2023-03-17T06:28:25.073Z,1.20
2023-03-17T06:32:27.895Z,1.30
2023-03-17T06:36:32.618Z,1.08
2023-03-17T06:40:35.099Z,0.63
2023-03-17T06:44:38.073Z,2.40
2023-03-17T06:48:40.240Z,7.10
2023-03-17T06:52:42.828Z,5.90
2023-03-17T06:56:45.351Z,2.80
2023-03-17T07:00:49.454Z,5.25
2023-03-17T07:04:53.738Z,1.42
2023-03-17T07:08:56.837Z,2.03
2023-03-17T07:13:05.406Z,2.78
2023-03-17T07:17:14.876Z,1.42
2023-03-17T07:21:21.113Z,4.00
2023-03-17T07:25:24.222Z,1.30
2023-03-17T07:29:32.991Z,1.50
2023-03-17T07:33:37.142Z,1.88
2023-03-17T07:37:41.952Z,1.02
2023-03-17T07:41:44.455Z,4.53
2023-03-17T07:45:53.692Z,0.98
2023-03-17T07:49:58.176Z,1.27
2023-03-17T07:54:04.765Z,1.70
2023-03-17T07:58:15.794Z,2.60
2023-03-17T08:02:23.445Z,2.83
2023-03-17T08:06:26.740Z,1.75
2023-03-17T08:10:29.315Z,1.65
2023-03-17T08:14:32.461Z,0.55
2023-03-17T08:18:36.396Z,1.60
2023-03-17T08:22:40.981Z,2.90
2023-03-17T08:26:48.683Z,0.90
2023-03-17T08:30:51.293Z,0.93
2023-03-17T08:34:54.860Z,0.80
2023-03-17T08:38:59.113Z,0.95
2023-03-17T08:43:01.493Z,0.70
2023-03-17T08:47:04.454Z,1.17
2023-03-17T08:51:11.316Z,2.05
2023-03-17T08:55:15.542Z,2.40
2023-03-17T08:59:17.908Z,0.90
2023-03-17T09:03:21.668Z,1.08
2023-03-17T09:07:24.010Z,0.20
2023-03-17T09:11:30.658Z,0.68
2023-03-17T09:15:39.178Z,0.40
2023-03-17T09:19:43.886Z,1.00
2023-03-17T09:23:49.908Z,0.70
2023-03-17T09:27:55.904Z,0.57
2023-03-17T09:31:58.193Z,1.02
2023-03-17T09:36:00.762Z,0.80
2023-03-17T09:40:08.516Z,0.82
2023-03-17T09:44:26.424Z,1.25
2023-03-17T09:48:46.994Z,0.98
2023-03-17T09:52:55.538Z,3.38
2023-03-17T09:57:06.364Z,1.25
2023-03-17T10:01:10.752Z,0.95
2023-03-17T10:10:15.665Z,1.13
2023-03-17T10:14:22.541Z,1.63
2023-03-17T10:18:31.462Z,0.55
2023-03-17T10:23:18.463Z,0.70
2023-03-17T10:27:21.740Z,1.27
2023-03-17T10:31:30.820Z,0.85
2023-03-17T10:35:37.216Z,0.70
2023-03-17T10:39:49.460Z,1.60
2023-03-17T10:43:52.283Z,1.35
2023-03-17T10:47:57.486Z,0.90
2023-03-17T10:52:00.988Z,0.50
2023-03-17T10:56:20.544Z,2.50
2023-03-17T11:00:23.538Z,1.58
2023-03-17T11:08:35.562Z,1.17
2023-03-17T11:12:41.440Z,0.95
2023-03-17T11:16:56.956Z,0.77
2023-03-17T11:21:20.163Z,1.85
2023-03-17T11:25:23.685Z,1.52
2023-03-17T11:29:35.213Z,2.08
2023-03-17T11:33:40.533Z,2.05
2023-03-17T11:37:42.757Z,1.48
2023-03-17T11:42:10.917Z,0.40
2023-03-17T11:46:38.163Z,2.00
2023-03-17T11:50:45.809Z,2.90
2023-03-17T11:55:25.066Z,1.52
2023-03-17T11:59:47.659Z,6.47
2023-03-17T12:04:28.358Z,6.13
2023-03-17T12:08:45.582Z,1.85
2023-03-17T12:12:54.257Z,2.28
2023-03-17T12:17:00.763Z,3.35
2023-03-17T12:21:33.470Z,3.30
2023-03-17T12:25:57.907Z,3.38
2023-03-17T12:30:24.297Z,3.97
2023-03-17T12:34:36.972Z,3.60
2023-03-17T12:39:09.427Z,2.35
2023-03-17T12:43:36.515Z,3.90
2023-03-17T12:47:38.764Z,3.97
2023-03-17T12:51:53.825Z,2.15
2023-03-17T12:56:01.410Z,3.10
2023-03-17T13:00:15.501Z,4.35
2023-03-17T13:04:35.578Z,3.20
2023-03-17T13:08:41.353Z,3.28
2023-03-17T13:13:04.111Z,2.55
2023-03-17T13:17:19.976Z,4.18
2023-03-17T13:21:23.777Z,4.43
2023-03-17T13:25:38.428Z,3.85
2023-03-17T13:29:46.289Z,2.25
2023-03-17T13:33:54.976Z,5.32
2023-03-17T13:37:59.962Z,3.80
2023-03-17T13:42:26.734Z,3.45
2023-03-17T13:46:41.896Z,4.00
2023-03-17T13:50:44.789Z,2.53
2023-03-17T13:54:58.835Z,2.72
2023-03-17T13:59:05.580Z,2.05
2023-03-17T14:03:29.404Z,4.57
2023-03-17T14:07:51.079Z,3.77
2023-03-17T14:11:54.824Z,2.13
2023-03-17T14:16:33.047Z,2.35
2023-03-17T14:20:35.334Z,2.60
2023-03-17T14:24:37.505Z,3.78
2023-03-17T14:28:40.222Z,3.00
2023-03-17T14:32:47.415Z,2.05
2023-03-17T14:36:51.733Z,1.60
2023-03-17T14:45:19.246Z,3.40
2023-03-17T14:49:23.233Z,6.57
2023-03-17T14:53:26.507Z,6.07
2023-03-17T14:57:33.413Z,3.33
2023-03-17T15:01:43.658Z,6.53
2023-03-17T15:05:46.815Z,4.88
2023-03-17T15:09:59.816Z,3.42
2023-03-17T15:14:21.607Z,4.60
2023-03-17T15:18:25.473Z,2.53
2023-03-17T15:22:41.587Z,3.22
2023-03-17T15:26:43.747Z,2.35
2023-03-17T15:30:51.592Z,2.25
2023-03-17T15:34:57.219Z,3.10
2023-03-17T15:38:59.533Z,4.85
2023-03-17T15:43:01.742Z,1.73
2023-03-17T15:47:04.437Z,2.30
2023-03-17T15:51:07.500Z,5.18
2023-03-17T15:55:21.425Z,3.42
2023-03-17T15:59:23.850Z,2.03
2023-03-17T16:03:32.750Z,1.35
2023-03-17T16:07:35.021Z,3.10
2023-03-17T16:11:39.388Z,2.90
2023-03-17T16:15:46.348Z,3.15
2023-03-17T16:19:48.881Z,3.60
2023-03-17T16:23:51.067Z,4.85
2023-03-17T16:27:55.719Z,2.53
2023-03-17T16:31:57.897Z,4.55
2023-03-17T16:36:01.434Z,3.33
2023-03-17T16:40:05.120Z,6.55
2023-03-17T16:44:11.712Z,4.30
2023-03-17T16:48:14.994Z,4.65
2023-03-17T16:52:17.392Z,1.93
2023-03-17T16:56:22.541Z,2.38
2023-03-17T17:00:28.577Z,3.15
2023-03-17T17:04:31.317Z,3.45
2023-03-17T17:08:33.648Z,3.72
2023-03-17T17:12:36.023Z,2.58
2023-03-17T17:16:42.144Z,2.67
2023-03-17T17:20:46.035Z,5.75
2023-03-17T17:24:48.246Z,7.30
2023-03-17T17:28:50.546Z,5.43
2023-03-17T17:32:53.346Z,13.73
2023-03-17T17:36:55.633Z,17.70
2023-03-17T17:40:59.570Z,15.32
2023-03-17T17:45:02.186Z,14.18
2023-03-17T17:49:04.621Z,6.80
2023-03-17T17:53:11.689Z,6.55
2023-03-17T17:57:14.524Z,9.23
2023-03-17T18:01:20.562Z,7.65
2023-03-17T18:05:23.098Z,41.80
2023-03-17T18:09:25.260Z,30.10
2023-03-17T18:13:27.475Z,25.67
2023-03-17T18:17:32.005Z,22.92
2023-03-17T18:21:36.640Z,34.38
2023-03-17T18:25:39.000Z,37.75
2023-03-17T18:29:41.616Z,31.58
2023-03-17T18:33:47.034Z,38.08
2023-03-17T18:37:50.940Z,29.85
2023-03-17T18:41:54.137Z,27.13
2023-03-17T18:45:56.380Z,31.23
2023-03-17T18:49:59.787Z,26.58
2023-03-17T18:54:03.079Z,28.75
2023-03-17T18:58:05.448Z,31.77
2023-03-17T19:02:08.692Z,26.42
2023-03-17T19:06:13.676Z,23.13
2023-03-17T19:10:16.201Z,29.60
2023-03-17T19:14:18.399Z,24.13
2023-03-17T19:18:20.860Z,12.07
2023-03-17T19:22:23.294Z,17.73
2023-03-17T19:26:26.078Z,33.55
2023-03-17T19:30:28.374Z,32.22
2023-03-17T19:34:30.636Z,32.85
2023-03-17T19:38:33.120Z,28.63
2023-03-17T19:42:35.609Z,29.27
2023-03-17T19:46:38.439Z,19.05
2023-03-17T19:50:41.217Z,13.27
2023-03-17T19:54:45.987Z,13.20
2023-03-17T19:58:48.253Z,18.45
2023-03-17T20:02:51.388Z,13.48
2023-03-17T20:06:55.782Z,17.48
2023-03-17T20:10:58.734Z,20.00
2023-03-17T20:15:01.620Z,15.30
2023-03-17T20:19:03.971Z,14.43
2023-03-17T20:23:06.104Z,17.92
2023-03-17T20:27:10.643Z,23.42
2023-03-17T20:35:14.913Z,29.20
2023-03-17T20:39:20.061Z,19.48
2023-03-17T20:43:22.711Z,21.98
2023-03-17T20:47:24.951Z,22.27
2023-03-17T20:51:27.972Z,18.38
2023-03-17T20:55:30.935Z,22.42
2023-03-17T20:59:34.566Z,36.65
2023-03-17T21:03:37.424Z,29.30
2023-03-17T21:07:39.670Z,27.58
2023-03-17T21:11:42.276Z,24.15
2023-03-17T21:15:44.606Z,22.45
2023-03-17T21:19:47.464Z,16.38
2023-03-17T21:23:49.650Z,15.10
2023-03-17T21:27:52.850Z,17.33
2023-03-17T21:31:56.949Z,20.00
2023-03-17T21:35:59.558Z,29.15
2023-03-17T21:40:02.025Z,23.33
2023-03-17T21:44:06.301Z,21.88
2023-03-17T21:48:08.719Z,18.17
2023-03-17T21:52:11.454Z,21.50
2023-03-17T21:56:14.147Z,23.33
2023-03-17T22:00:17.442Z,22.00
2023-03-17T22:04:19.978Z,20.15
2023-03-17T22:08:22.832Z,23.48
2023-03-17T22:12:25.540Z,24.85
2023-03-17T22:16:28.224Z,24.85
2023-03-17T22:20:30.744Z,52.78
2023-03-17T22:24:33.672Z,25.45
2023-03-17T22:28:36.042Z,27.80
2023-03-17T22:32:38.280Z,23.23
2023-03-17T22:36:41.257Z,27.83
2023-03-17T22:40:43.652Z,19.35
2023-03-17T22:44:48.580Z,19.42
2023-03-17T22:48:51.962Z,19.88
2023-03-17T22:52:54.434Z,21.73
2023-03-17T22:56:57.136Z,18.40
2023-03-17T23:01:00.279Z,17.70
2023-03-17T23:05:02.949Z,14.85
2023-03-17T23:09:05.858Z,13.23
2023-03-17T23:13:08.778Z,15.57
2023-03-17T23:17:11.141Z,15.73
2023-03-17T23:21:21.372Z,17.08
2023-03-17T23:25:25.433Z,17.63
2023-03-17T23:29:27.863Z,14.85
2023-03-17T23:33:31.091Z,17.92
2023-03-17T23:37:33.476Z,17.23
2023-03-17T23:41:36.376Z,15.45
2023-03-17T23:45:41.341Z,14.00
2023-03-17T23:49:44.008Z,17.73
2023-03-17T23:53:46.585Z,12.55
2023-03-17T23:57:50.301Z,15.73
